Latest Weather Observations for Low Rocky Point

IDT60801

Issued at 8:22 pm EDT Tuesday 23 October 2018 (issued every 10 minutes, with the page automatically refreshed every 10 minutes)

About weather observations | Map of weather stations | Latest weather observations for TAS | Other Formats
Station Details ID: 097080 Name: LOW ROCKY POINT Lat: -42.98 Lon: 145.50 Height: 34.0 m
Data from the previous 72 hours. | See also: Recent months at Low Rocky Point
Date/Time
EDT
Temp
°C
App
Temp
°C
Dew
Point
°C
Rel
Hum
%
Delta-T
°C
Wind Press
QNH
hPa
Press
MSL
hPa
Rain since
9am
mm
Dir  Spd
km/h
Gust
km/h
Spd
kts
Gust
kts
23/08:20pm 9.3 -0.3 4.3 71 2.2 W 44 57 24 31 1014.5 1014.6 0.6
23/08:00pm 10.2 0.8 4.6 68 2.5 WNW 43 54 23 29 1014.0 1014.1 0.6
23/07:30pm 10.5 2.1 5.7 72 2.2 W 39 46 21 25 1013.5 1013.6 0.6
23/07:00pm 10.6 1.0 4.5 66 2.7 WNW 44 52 24 28 1012.8 1012.8 0.6
23/06:57pm 10.7 1.3 4.2 64 2.9 WNW 43 52 23 28 1012.8 1012.9 0.6
23/06:35pm 10.3 0.9 4.5 67 2.6 WNW 43 56 23 30 1012.7 1012.8 0.6
23/06:30pm 10.6 2.1 5.2 69 2.5 WNW 39 46 21 25 1012.5 1012.6 0.6
23/06:00pm 11.1 1.8 4.8 65 2.9 WNW 43 54 23 29 1012.2 1012.2 0.6
23/05:30pm 11.6 2.3 4.8 63 3.1 WNW 43 54 23 29 1012.0 1012.1 0.6
23/05:00pm 11.9 2.2 5.8 66 2.9 WNW 46 56 25 30 1011.5 1011.5 0.6
23/04:30pm 12.5 3.3 6.5 67 2.9 W 44 56 24 30 1011.3 1011.4 0.6
23/04:00pm 12.8 2.3 5.7 62 3.3 WNW 50 59 27 32 1010.6 1010.6 0.6
23/03:30pm 12.4 1.5 5.6 63 3.2 WNW 52 63 28 34 1010.2 1010.3 0.6
23/03:00pm 13.0 3.5 6.6 65 3.1 WNW 46 59 25 32 1010.0 1010.0 0.6
23/02:30pm 13.1 2.6 7.3 68 2.8 WNW 52 61 28 33 1010.0 1010.1 0.6
23/02:00pm 12.2 3.5 7.7 74 2.2 NW 43 54 23 29 1009.8 1009.8 0.6
23/01:32pm 11.6 0.9 6.5 71 2.4 WNW 52 74 28 40 1009.5 1009.5 0.6
23/01:30pm 12.3 1.8 7.2 71 2.5 WNW 52 59 28 32 1009.5 1009.5 0.6
23/01:00pm 12.6 2.9 7.5 71 2.5 WNW 48 56 26 30 1009.2 1009.2 0.6
23/12:30pm 13.3 4.2 8.6 73 2.4 NW 46 57 25 31 1008.8 1008.8 0.6
23/12:00pm 12.0 2.6 8.8 81 1.6 WNW 48 59 26 32 1008.5 1008.5 0.6
23/11:30am 10.8 2.1 8.6 86 1.1 NW 44 54 24 29 1008.6 1008.6 0.6
23/11:10am 10.5 1.3 7.9 84 1.3 NW 46 65 25 35 1008.6 1008.6 0.6
23/11:00am 10.4 -0.1 7.3 81 1.5 WNW 52 63 28 34 1008.5 1008.5 0.6
23/10:30am 11.4 2.3 8.3 81 1.5 NW 46 59 25 32 1008.6 1008.6 0.6
23/10:00am 10.5 -1.8 6.8 78 1.8 NW 61 80 33 43 1008.2 1008.2 0.4
23/09:50am 12.0 1.0 6.7 70 2.5 NW 54 78 29 42 1008.1 1008.1 0.0
23/09:30am 13.3 2.2 8.0 70 2.6 NW 56 67 30 36 1007.9 1007.9 0.0
23/09:00am 13.1 3.1 7.8 70 2.6 NW 50 61 27 33 1007.8 1007.8 0.0
23/08:30am 12.8 2.9 8.1 73 2.3 NW 50 61 27 33 1007.5 1007.5 0.0
23/08:00am 12.5 2.4 7.6 72 2.4 NW 50 59 27 32 1007.3 1007.3 0.0
23/07:30am 12.3 2.1 7.0 70 2.5 NW 50 63 27 34 1007.1 1007.1 0.0
23/07:00am 12.2 1.9 8.3 77 1.9 NW 52 65 28 35 1006.7 1006.7 0.0
23/06:30am 12.2 3.2 8.9 80 1.7 NW 46 59 25 32 1006.7 1006.7 0.0
23/06:00am 12.3 2.5 8.8 79 1.8 NW 50 61 27 33 1006.2 1006.2 0.0
23/05:30am 12.6 3.8 9.4 81 1.6 NW 46 57 25 31 1005.8 1005.8 0.0
23/05:00am 12.6 4.3 10.0 84 1.3 NW 44 56 24 30 1005.7 1005.7 0.0
23/04:30am 12.7 3.7 10.1 84 1.3 NW 48 61 26 33 1005.8 1005.8 0.0
23/04:00am 13.1 4.3 11.0 87 1.1 NW 48 63 26 34 1005.8 1005.8 0.0
23/03:30am 13.2 6.2 11.3 88 1.0 NNW 39 50 21 27 1006.2 1006.2 0.0
23/03:00am 13.2 6.1 10.9 86 1.2 NNW 39 50 21 27 1006.2 1006.2 0.0
23/02:30am 13.2 7.0 11.3 88 1.0 NNW 35 48 19 26 1006.3 1006.3 0.0
23/02:00am 13.2 6.6 11.4 89 1.0 NNW 37 48 20 26 1006.5 1006.5 0.0
23/01:30am 13.3 6.4 11.5 89 1.0 NNW 39 52 21 28 1006.8 1006.8 0.0
23/01:00am 13.0 6.4 11.4 90 0.9 NNW 37 46 20 25 1006.9 1006.9 0.0
23/12:30am 13.1 4.9 11.8 92 0.7 NW 46 56 25 30 1007.4 1007.4 0.0
23/12:00am 13.6 6.0 12.5 93 0.6 NW 44 57 24 31 1007.4 1007.4 0.0
 
Date/Time
EDT
Temp
°C
App
Temp
°C
Dew
Point
°C
Rel
Hum
%
Delta-T
°C
Wind Press
QNH
hPa
Press
MSL
hPa
Rain since
9am
mm
Dir  Spd
km/h
Gust
km/h
Spd
kts
Gust
kts
22/11:30pm 13.6 5.3 12.5 93 0.6 NW 48 59 26 32 1007.3 1007.3 0.0
22/11:00pm 13.7 5.3 12.4 92 0.7 NW 48 57 26 31 1007.1 1007.1 0.0
22/10:30pm 13.9 5.2 12.5 91 0.8 NW 50 63 27 34 1007.1 1007.1 0.0
22/10:00pm 13.9 5.4 12.1 89 1.0 NW 48 57 26 31 1006.7 1006.7 0.0
22/09:30pm 14.1 4.3 11.6 85 1.3 NW 54 65 29 35 1006.3 1006.3 0.0
22/09:00pm 14.4 5.3 11.2 81 1.7 NW 50 63 27 34 1005.9 1005.9 0.0
22/08:30pm 14.6 5.0 10.8 78 2.0 NW 52 65 28 35 1005.5 1005.5 0.0
22/08:00pm 15.2 6.4 11.0 76 2.2 NW 48 57 26 31 1005.0 1005.0 0.0
22/07:30pm 15.9 8.0 11.3 74 2.5 NNW 44 56 24 30 1004.6 1004.6 0.0
22/07:00pm 16.2 8.5 11.4 73 2.6 NNW 43 52 23 28 1003.9 1003.9 0.0
22/06:30pm 16.5 8.7 11.2 71 2.9 NNW 43 54 23 29 1003.7 1003.7 0.0
22/06:00pm 16.9 8.5 11.2 69 3.1 NNW 46 57 25 31 1003.6 1003.6 0.0
22/05:30pm 18.0 8.0 10.6 62 4.0 NNW 54 63 29 34 1003.3 1003.3 0.0
22/05:00pm 19.6 11.3 9.2 51 5.5 NNW 43 54 23 29 1003.4 1003.4 0.0
22/04:30pm 19.4 11.7 10.1 55 5.0 NNW 41 54 22 29 1003.7 1003.7 0.0
22/04:15pm 19.5 10.7 9.7 53 5.2 NNW 46 65 25 35 1003.9 1003.9 0.0
22/04:00pm 18.9 9.5 10.2 57 4.7 NNW 50 65 27 35 1004.0 1004.0 0.0
22/03:30pm 19.2 10.4 9.7 54 5.1 NNW 46 61 25 33 1004.4 1004.4 0.0
22/03:00pm 19.1 9.5 9.6 54 5.1 NNW 50 63 27 34 1004.8 1004.8 0.0
22/02:49pm 19.3 10.6 9.8 54 5.1 NNW 46 65 25 35 1005.0 1005.0 0.0
22/02:30pm 19.3 10.9 9.8 54 5.1 NNW 44 57 24 31 1005.4 1005.4 0.0
22/02:05pm 19.0 10.7 10.0 56 4.8 NNW 44 63 24 34 1005.8 1005.8 0.0
22/02:00pm 19.2 10.4 9.7 54 5.1 NNW 46 63 25 34 1005.8 1005.8 0.0
22/01:30pm 19.1 9.9 9.6 54 5.0 NNW 48 63 26 34 1006.1 1006.1 0.0
22/01:00pm 18.8 10.4 9.6 55 4.9 NNW 44 63 24 34 1006.4 1006.4 0.0
22/12:51pm 18.2 9.8 9.5 57 4.6 NNW 44 63 24 34 1006.6 1006.6 0.0
22/12:30pm 17.7 8.3 10.1 61 4.0 NW 50 61 27 33 1007.0 1007.0 0.0
22/12:00pm 17.4 9.2 10.5 64 3.7 NW 44 54 24 29 1007.2 1007.2 0.0
22/11:30am 17.0 9.1 10.8 67 3.3 NNW 43 56 23 30 1007.7 1007.7 0.0
22/11:00am 16.1 8.7 11.3 73 2.6 NNW 41 54 22 29 1008.1 1008.1 0.0
22/10:30am 15.7 9.0 10.9 73 2.6 NNW 37 44 20 24 1008.6 1008.6 0.0
22/10:00am 15.3 8.8 10.3 72 2.6 NNW 35 44 19 24 1009.1 1009.1 0.0
22/09:41am 15.0 9.8 10.2 73 2.5 NNW 28 46 15 25 1009.4 1009.4 0.0
22/09:30am 15.2 10.8 10.4 73 2.5 NNW 24 37 13 20 1009.5 1009.5 0.0
22/09:00am 14.3 9.4 10.1 76 2.2 NNW 26 33 14 18 1009.7 1009.7 0.0
22/08:30am 13.3 8.9 10.5 83 1.5 N 24 33 13 18 1009.7 1009.7 0.0
22/08:00am 11.8 7.2 9.5 86 1.2 N 24 41 13 22 1009.9 1009.9 0.0
22/07:30am 10.9 6.2 9.3 90 0.8 N 24 35 13 19 1009.8 1009.8 0.0
22/07:00am 9.9 5.0 8.5 91 0.7 N 24 30 13 16 1009.9 1009.9 0.0
22/06:30am 9.8 4.9 8.4 91 0.7 N 24 30 13 16 1010.0 1010.1 0.0
22/06:00am 10.0 5.1 8.4 90 0.8 N 24 33 13 18 1010.0 1010.0 0.0
22/05:30am 10.2 5.7 8.6 90 0.8 N 22 30 12 16 1010.2 1010.3 0.0
22/05:00am 10.5 5.7 8.9 90 0.8 N 24 33 13 18 1010.3 1010.3 0.0
22/04:30am 11.3 7.4 9.6 89 0.9 N 20 28 11 15 1010.8 1010.9 0.0
22/04:00am 11.5 7.7 9.9 90 0.8 N 20 28 11 15 1011.2 1011.2 0.0
22/03:30am 11.4 7.6 9.8 90 0.8 N 20 24 11 13 1011.6 1011.7 0.0
22/03:00am 11.5 7.9 9.8 89 0.9 N 19 26 10 14 1011.8 1011.8 0.0
22/02:30am 11.4 8.2 9.8 90 0.8 N 17 20 9 11 1012.1 1012.2 0.0
22/02:00am 11.4 7.8 9.7 89 0.9 N 19 24 10 13 1012.4 1012.4 0.0
22/01:30am 11.5 6.9 9.8 89 0.9 N 24 33 13 18 1013.0 1013.1 0.0
22/01:00am 11.5 8.3 9.8 89 0.9 N 17 24 9 13 1013.6 1013.6 0.0
22/12:30am 12.0 8.7 9.7 86 1.2 N 17 22 9 12 1014.0 1014.1 0.0
22/12:00am 12.9 7.9 10.8 87 1.1 NNW 28 39 15 21 1014.4 1014.4 0.0
 
Date/Time
EDT
Temp
°C
App
Temp
°C
Dew
Point
°C
Rel
Hum
%
Delta-T
°C
Wind Press
QNH
hPa
Press
MSL
hPa
Rain since
9am
mm
Dir  Spd
km/h
Gust
km/h
Spd
kts
Gust
kts
21/11:30pm 12.8 8.2 11.0 89 0.9 NNW 26 37 14 20 1014.7 1014.8 0.0
21/11:00pm 12.7 6.9 10.9 89 0.9 NNW 32 41 17 22 1014.8 1014.8 0.0
21/10:30pm 12.6 7.9 10.8 89 0.9 NNW 26 35 14 19 1015.0 1015.1 0.0
21/10:00pm 12.7 7.8 11.3 91 0.7 NNW 28 41 15 22 1015.0 1015.0 0.0
21/09:30pm 12.5 8.3 11.1 91 0.7 NNW 24 32 13 17 1015.1 1015.2 0.0
21/09:00pm 12.6 8.0 11.2 91 0.7 NNW 26 35 14 19 1015.0 1015.0 0.0
21/08:30pm 12.4 6.7 11.0 91 0.7 NNW 32 35 17 19 1015.0 1015.1 0.0
21/08:00pm 12.4 6.5 11.0 91 0.7 NW 33 39 18 21 1014.7 1014.7 0.0
21/07:30pm 12.7 6.4 10.9 89 0.9 NW 35 44 19 24 1014.6 1014.7 0.0
21/07:00pm 12.9 6.6 11.1 89 0.9 NW 35 43 19 23 1014.4 1014.4 0.0
21/06:30pm 13.0 6.7 10.9 87 1.1 NW 35 43 19 23 1014.4 1014.5 0.0
21/06:00pm 13.3 6.8 10.5 83 1.5 NW 35 41 19 22 1014.3 1014.3 0.0
21/05:30pm 13.6 6.7 10.4 81 1.7 NW 37 46 20 25 1014.4 1014.5 0.0
21/05:00pm 14.2 7.5 11.0 81 1.7 NW 37 44 20 24 1014.3 1014.3 0.0
21/04:30pm 14.7 8.0 10.9 78 2.0 NW 37 44 20 24 1014.5 1014.6 0.0
21/04:00pm 15.0 8.7 11.0 77 2.1 NW 35 46 19 25 1014.7 1014.7 0.0
21/03:30pm 15.1 8.8 11.1 77 2.1 NW 35 41 19 22 1015.0 1015.1 0.0
21/03:00pm 14.9 9.1 10.9 77 2.1 NNW 32 39 17 21 1015.6 1015.5 0.0
21/02:30pm 14.5 8.5 10.9 79 1.9 NNW 33 41 18 22 1015.9 1015.9 0.0
21/02:00pm 14.2 7.7 10.4 78 2.0 NNW 35 44 19 24 1016.0 1015.9 0.0
21/01:30pm 14.3 7.2 10.9 80 1.8 NW 39 46 21 25 1016.1 1016.1 0.0
21/01:00pm 13.3 7.3 10.1 81 1.7 NNW 32 39 17 21 1016.2 1016.1 0.0
21/12:30pm 14.5 7.4 9.7 73 2.5 NW 37 43 20 23 1016.2 1016.2 0.0
21/12:00pm 14.2 7.8 9.2 72 2.5 NNW 33 43 18 23 1016.4 1016.3 0.0
21/11:30am 14.7 10.0 10.5 76 2.2 NNW 26 33 14 18 1016.6 1016.6 0.0
21/11:07am 13.3 6.8 9.0 75 2.2 NW 33 52 18 28 1016.7 1016.7 0.0
21/11:00am 13.3 7.3 8.8 74 2.3 NNW 30 41 16 22 1016.7 1016.7 0.0
21/10:30am 13.5 7.8 9.7 78 2.0 NNW 30 37 16 20 1016.6 1016.6 0.0
21/10:00am 13.6 8.3 10.0 79 1.9 NNW 28 35 15 19 1016.7 1016.7 0.0
21/09:30am 13.5 9.5 10.3 81 1.7 NNW 22 33 12 18 1016.9 1016.9 0.0
21/09:00am 13.5 8.9 11.0 85 1.3 NNW 26 35 14 19 1016.8 1016.8 0.0
21/08:30am 12.6 8.1 10.1 85 1.3 NNW 24 32 13 17 1016.4 1016.4 0.0
21/08:00am 12.1 8.4 10.0 87 1.1 NNW 20 28 11 15 1016.3 1016.2 0.0
21/07:30am 10.9 7.0 8.7 86 1.1 N 19 26 10 14 1016.2 1016.2 0.0
21/07:00am 10.9 6.1 8.7 86 1.1 NNW 24 35 13 19 1016.1 1016.0 0.0
21/06:30am 10.1 5.8 7.9 86 1.1 N 20 26 11 14 1015.9 1015.9 0.0
21/06:00am 9.7 5.5 7.5 86 1.0 N 19 24 10 13 1015.9 1015.8 0.0
21/05:30am 9.6 5.2 7.4 86 1.0 N 20 26 11 14 1015.7 1015.7 0.0
21/05:00am 9.1 4.6 6.9 86 1.0 N 20 26 11 14 1015.8 1015.7 0.0
21/04:30am 9.3 4.8 6.9 85 1.1 N 20 26 11 14 1015.9 1015.9 0.0
21/04:00am 9.7 5.2 7.0 83 1.3 N 20 28 11 15 1015.9 1015.8 0.0
21/03:30am 10.0 5.2 7.3 83 1.3 N 22 30 12 16 1016.0 1016.0 0.0
21/03:00am 9.9 4.7 7.3 84 1.2 N 24 32 13 17 1016.1 1016.0 0.0
21/02:30am 9.8 5.0 7.2 84 1.2 N 22 33 12 18 1016.1 1016.1 0.0
21/02:00am 9.8 4.6 7.1 83 1.3 N 24 33 13 18 1016.3 1016.2 0.0
21/01:30am 9.7 4.7 6.6 81 1.4 N 22 28 12 15 1016.3 1016.3 0.0
21/01:00am 9.4 4.8 6.3 81 1.4 N 20 26 11 14 1016.4 1016.3 0.0
21/12:30am 9.3 4.8 6.0 80 1.5 N 19 24 10 13 1016.5 1016.5 0.0
21/12:00am 9.5 4.8 6.0 79 1.6 N 20 26 11 14 1016.7 1016.7 0.0
 
Date/Time
EDT
Temp
°C
App
Temp
°C
Dew
Point
°C
Rel
Hum
%
Delta-T
°C
Wind Press
QNH
hPa
Press
MSL
hPa
Rain since
9am
mm
Dir  Spd
km/h
Gust
km/h
Spd
kts
Gust
kts
20/11:30pm 10.0 5.4 6.3 78 1.7 N 20 28 11 15 1016.8 1016.8 0.0
20/11:00pm 9.9 5.4 6.2 78 1.7 N 19 24 10 13 1016.9 1016.9 0.0
20/10:30pm 10.0 5.5 6.3 78 1.7 N 19 26 10 14 1017.0 1017.0 0.0
20/10:00pm 9.8 5.7 6.0 77 1.7 N 17 20 9 11 1016.7 1016.7 0.0
20/09:30pm 9.7 5.5 5.7 76 1.8 N 17 20 9 11 1016.5 1016.5 0.0
20/09:00pm 10.8 6.3 6.2 73 2.1 NW 19 22 10 12 1016.1 1016.0 0.0
20/08:30pm 11.0 6.6 6.6 74 2.1 NW 19 22 10 12 1015.7 1015.7 0.0

Other Formats:

Comma delimited format used in spreadsheet applications
http://www.bom.gov.au/fwo/IDT60801/IDT60801.95961.axf

JavaScript Object Notation format (JSON) in row-major order
http://www.bom.gov.au/fwo/IDT60801/IDT60801.95961.json